Time;durP1;ratioP1;P1;durP2;ratioP2;P2;SDS_P1;SDS_P2;PMS_P1;PMS_P2;Temp;Humidity;BMP_temperature;BMP_pressure;BME280_temperature;BME280_humidity;BME280_pressure;Samples;Min_cycle;Max_cycle;Signal;HPM_P1;HPM_P2
2023/06/07 00:00:23;;;;;;;18.83;7.30;;;;;;;12.09;100.00;102028.91;7408985;19;20412;-44
2023/06/07 00:02:53;;;;;;;15.53;5.87;;;;;;;12.13;100.00;102061.00;7382509;19;20489;-44
2023/06/07 00:05:23;;;;;;;13.83;5.37;;;;;;;12.04;100.00;102068.28;7407752;19;20425;-44
2023/06/07 00:07:53;;;;;;;17.13;6.50;;;;;;;12.06;100.00;102075.31;7380289;19;20432;-44
2023/06/07 00:10:23;;;;;;;21.00;6.30;;;;;;;12.00;100.00;102087.88;7406859;19;20394;-44
2023/06/07 00:12:53;;;;;;;21.90;6.60;;;;;;;11.91;100.00;102093.41;7382166;19;20408;-44
2023/06/07 00:15:25;;;;;;;19.00;6.37;;;;;;;11.94;100.00;102119.44;7407478;19;20995;-44
2023/06/07 00:17:59;;;;;;;21.40;7.90;;;;;;;11.87;100.00;102132.81;7380545;19;20423;-44
2023/06/07 00:20:30;;;;;;;17.90;7.60;;;;;;;11.74;100.00;102150.19;7408343;19;20407;-44
2023/06/07 00:23:01;;;;;;;22.40;7.20;;;;;;;11.70;100.00;102168.03;7382892;19;20423;-44
2023/06/07 00:25:31;;;;;;;13.37;6.27;;;;;;;11.63;100.00;102187.44;7407001;19;20804;-44
2023/06/07 00:28:00;;;;;;;12.77;6.47;;;;;;;11.61;100.00;102212.31;7380385;19;20430;-44
2023/06/07 00:30:32;;;;;;;17.07;6.83;;;;;;;11.47;100.00;102222.69;7406702;19;20395;-44
2023/06/07 00:33:02;;;;;;;13.47;6.17;;;;;;;11.43;100.00;102287.91;7383838;19;20462;-44
2023/06/07 00:35:32;;;;;;;16.50;6.03;;;;;;;11.36;100.00;102324.50;7406168;19;20392;-44
2023/06/07 00:38:01;;;;;;;12.80;5.50;;;;;;;11.15;100.00;102343.00;7379077;19;20422;-44
2023/06/07 00:40:31;;;;;;;16.63;5.90;;;;;;;11.09;100.00;102386.53;7405345;19;20421;-44
2023/06/07 00:43:00;;;;;;;17.57;6.13;;;;;;;11.22;100.00;102403.69;7381530;19;20426;-44
2023/06/07 00:45:32;;;;;;;14.83;6.63;;;;;;;11.17;100.00;102411.16;7405761;19;20768;-44
2023/06/07 00:48:03;;;;;;;20.07;6.37;;;;;;;11.04;100.00;102432.69;7379413;19;20425;-44
2023/06/07 00:50:33;;;;;;;18.70;6.67;;;;;;;11.28;100.00;102448.03;7404852;19;20442;-44
2023/06/07 00:53:02;;;;;;;17.33;6.83;;;;;;;11.30;100.00;102453.31;7381261;19;20405;-43
2023/06/07 00:55:32;;;;;;;14.00;5.77;;;;;;;11.12;100.00;102458.16;7404315;19;20406;-44
2023/06/07 00:58:02;;;;;;;15.63;6.17;;;;;;;11.09;100.00;102464.00;7378672;19;20902;-44
2023/06/07 01:00:34;;;;;;;17.33;6.47;;;;;;;11.19;100.00;102475.84;7405622;19;20406;-44
2023/06/07 01:03:05;;;;;;;17.27;6.23;;;;;;;10.96;100.00;102476.91;7381635;19;20405;-44
2023/06/07 01:05:35;;;;;;;13.80;6.30;;;;;;;10.84;100.00;102472.69;7406625;19;20387;-44
2023/06/07 01:08:05;;;;;;;16.13;6.00;;;;;;;10.88;100.00;102476.38;7377813;19;20488;-44
2023/06/07 01:10:35;;;;;;;19.60;6.37;;;;;;;11.07;100.00;102479.41;7406090;19;20395;-44
2023/06/07 01:13:05;;;;;;;16.30;6.33;;;;;;;10.95;100.00;102476.00;7381850;19;20488;-44
2023/06/07 01:15:37;;;;;;;20.37;6.27;;;;;;;10.88;100.00;102481.53;7404139;19;20418;-44
2023/06/07 01:18:09;;;;;;;14.77;6.00;;;;;;;11.01;100.00;102483.25;7378956;19;20438;-44
2023/06/07 01:20:40;;;;;;;17.80;6.20;;;;;;;11.07;100.00;102479.41;7404119;19;20414;-44
2023/06/07 01:23:12;;;;;;;12.60;5.70;;;;;;;10.99;100.00;102475.41;7380798;19;20445;-44
2023/06/07 01:25:45;;;;;;;16.20;5.90;;;;;;;11.11;100.00;102482.16;7404765;19;20395;-43
2023/06/07 01:28:15;;;;;;;20.30;7.00;;;;;;;10.85;100.00;102479.63;7378847;19;20446;-44
2023/06/07 01:30:45;;;;;;;22.27;6.60;;;;;;;10.87;100.00;102479.75;7404257;19;20734;-44
2023/06/07 01:33:16;;;;;;;19.83;6.43;;;;;;;10.79;100.00;102486.97;7378925;19;20410;-43
2023/06/07 01:35:47;;;;;;;16.77;6.47;;;;;;;10.83;100.00;102477.72;7403366;19;20407;-44
2023/06/07 01:38:19;;;;;;;13.87;5.63;;;;;;;10.61;100.00;102487.47;7377952;19;20434;-44
2023/06/07 01:40:51;;;;;;;18.93;6.30;;;;;;;10.74;100.00;102478.00;7405203;19;20744;-43
2023/06/07 01:43:21;;;;;;;19.23;7.33;;;;;;;10.89;100.00;102468.72;7379988;19;20504;-44
2023/06/07 01:45:52;;;;;;;25.10;6.70;;;;;;;10.81;100.00;102469.88;7404195;19;20390;-42
2023/06/07 01:48:21;;;;;;;13.87;5.40;;;;;;;10.57;100.00;102470.00;7376023;19;20836;-44
2023/06/07 01:50:51;;;;;;;18.43;6.67;;;;;;;10.37;100.00;102481.47;7403493;19;20454;-44
2023/06/07 01:53:21;;;;;;;19.10;6.57;;;;;;;10.10;100.00;102461.56;7380140;19;20410;-42
2023/06/07 01:55:58;;;;;;;21.10;6.63;;;;;;;10.33;100.00;102412.38;7404618;19;20394;-44
2023/06/07 01:58:32;;;;;;;23.77;6.10;;;;;;;10.19;100.00;102398.50;7377480;19;20503;-44
2023/06/07 02:01:06;;;;;;;20.20;7.60;;;;;;;10.31;100.00;102352.06;7403302;19;20388;-43
2023/06/07 02:03:41;;;;;;;25.27;7.17;;;;;;;10.05;100.00;102338.25;7377925;19;20461;-43
2023/06/07 02:06:13;;;;;;;20.93;6.63;;;;;;;9.82;100.00;102315.25;7404184;19;20453;-44
2023/06/07 02:08:48;;;;;;;16.53;6.57;;;;;;;10.19;100.00;102256.66;7376444;19;20435;-44
2023/06/07 02:11:22;;;;;;;24.33;7.57;;;;;;;10.46;100.00;102218.06;7403563;19;20392;-44
2023/06/07 02:13:52;;;;;;;24.00;8.17;;;;;;;10.14;100.00;102217.66;7377821;19;20530;-44
2023/06/07 02:16:34;;;;;;;24.80;8.53;;;;;;;10.29;100.00;102201.44;7404302;19;20499;-43
2023/06/07 02:19:06;;;;;;;18.70;7.43;;;;;;;10.32;100.00;102192.22;7380556;19;20440;-44
2023/06/07 02:21:36;;;;;;;33.13;8.23;;;;;;;10.31;100.00;102166.31;7384689;19;20727;-43
2023/06/07 02:24:06;;;;;;;18.73;7.37;;;;;;;10.13;100.00;102166.88;7406810;19;20739;-44
2023/06/07 02:26:40;;;;;;;27.57;7.37;;;;;;;9.97;100.00;102154.66;7384837;19;20453;-44
2023/06/07 02:29:09;;;;;;;19.83;7.30;;;;;;;9.92;100.00;102130.25;7411349;19;20393;-46
2023/06/07 02:31:39;;;;;;;19.93;6.80;;;;;;;9.82;100.00;102093.56;7384693;19;20393;-44
2023/06/07 02:34:10;;;;;;;15.73;6.97;;;;;;;9.42;100.00;102067.69;7406570;19;20396;-44
2023/06/07 02:36:40;;;;;;;24.53;6.57;;;;;;;9.32;100.00;102033.59;7386539;19;20399;-44
2023/06/07 02:39:10;;;;;;;21.20;7.07;;;;;;;9.25;100.00;101992.78;7408124;19;20412;-43
2023/06/07 02:41:42;;;;;;;26.93;9.13;;;;;;;9.26;100.00;101960.16;7385544;19;20404;-44
2023/06/07 02:44:12;;;;;;;19.07;7.37;;;;;;;9.36;100.00;101934.22;7406409;19;20403;-44
2023/06/07 02:46:41;;;;;;;22.07;9.13;;;;;;;9.60;100.00;101910.88;7382399;19;20389;-44
2023/06/07 02:49:11;;;;;;;22.00;7.77;;;;;;;9.56;100.00;101889.16;7407042;19;20392;-43
2023/06/07 02:51:42;;;;;;;32.17;8.73;;;;;;;9.75;100.00;101873.97;7384662;19;20392;-44
2023/06/07 02:54:13;;;;;;;27.30;7.70;;;;;;;9.68;100.00;101862.38;7407155;19;20395;-44
2023/06/07 02:56:45;;;;;;;23.53;8.20;;;;;;;9.79;100.00;101848.47;7383198;19;20404;-43
2023/06/07 02:59:15;;;;;;;19.97;7.70;;;;;;;9.66;100.00;101848.50;7405906;19;20583;-44
2023/06/07 03:01:44;;;;;;;21.63;7.73;;;;;;;9.48;100.00;101830.22;7384703;19;20386;-44
2023/06/07 03:04:14;;;;;;;15.63;7.77;;;;;;;9.57;100.00;101839.41;7406541;19;20391;-42
2023/06/07 03:06:44;;;;;;;23.60;9.17;;;;;;;9.56;100.00;101824.75;7383954;19;20399;-43
2023/06/07 03:09:18;;;;;;;30.07;9.03;;;;;;;9.46;100.00;101814.66;7407601;19;20403;-44
2023/06/07 03:11:51;;;;;;;21.73;7.17;;;;;;;9.32;100.00;101817.25;7385338;19;20392;-44
2023/06/07 03:14:20;;;;;;;21.43;6.63;;;;;;;9.21;100.00;101802.78;7405326;19;20400;-43
2023/06/07 03:16:52;;;;;;;19.87;7.07;;;;;;;9.07;100.00;101796.75;7382956;19;20409;-44
2023/06/07 03:19:22;;;;;;;33.93;8.30;;;;;;;9.17;100.00;101778.53;7408390;19;20425;-44
2023/06/07 03:21:53;;;;;;;24.37;7.53;;;;;;;9.30;100.00;101764.75;7383630;19;20916;-43
2023/06/07 03:24:23;;;;;;;27.60;9.27;;;;;;;9.59;100.00;101752.78;7405458;19;20399;-44
2023/06/07 03:26:57;;;;;;;30.13;8.27;;;;;;;9.47;100.00;101739.16;7384360;19;20380;-44
2023/06/07 03:29:27;;;;;;;20.63;7.47;;;;;;;9.13;100.00;101739.63;7407058;19;20954;-44
2023/06/07 03:31:56;;;;;;;20.27;7.17;;;;;;;9.47;100.00;101733.13;7385499;19;20431;-43
2023/06/07 03:34:29;;;;;;;24.77;8.40;;;;;;;9.32;100.00;101724.53;7407883;19;20406;-44
2023/06/07 03:36:59;;;;;;;26.83;8.03;;;;;;;9.55;100.00;101719.88;7383516;19;20438;-44
2023/06/07 03:39:31;;;;;;;19.57;6.90;;;;;;;9.64;100.00;101716.13;7408013;19;20405;-43
2023/06/07 03:42:03;;;;;;;22.03;7.80;;;;;;;9.64;100.00;101721.25;7381928;19;20404;-44
2023/06/07 03:44:32;;;;;;;22.00;7.90;;;;;;;9.49;100.00;101716.94;7405458;19;20392;-44
2023/06/07 03:47:02;;;;;;;23.80;7.70;;;;;;;9.71;100.00;101713.09;7381047;19;20451;-44
2023/06/07 03:49:32;;;;;;;25.83;8.60;;;;;;;9.51;100.00;101720.50;7405254;19;20440;-44
2023/06/07 03:52:01;;;;;;;62.80;26.10;;;;;;;9.65;100.00;101717.88;7382401;19;20799;-44
2023/06/07 03:54:31;;;;;;;28.50;7.80;;;;;;;9.31;100.00;101717.59;7408231;19;20440;-44
2023/06/07 03:57:03;;;;;;;31.13;10.67;;;;;;;9.36;100.00;101714.41;7380375;19;20447;-44
2023/06/07 03:59:32;;;;;;;41.63;18.50;;;;;;;9.54;100.00;101705.22;7406318;19;20967;-44
2023/06/07 04:02:03;;;;;;;27.00;8.30;;;;;;;9.41;100.00;101694.97;7383290;19;20407;-44
2023/06/07 04:04:33;;;;;;;32.17;9.73;;;;;;;9.71;100.00;101692.50;7404700;19;20400;-44
2023/06/07 04:07:03;;;;;;;26.27;9.00;;;;;;;9.70;100.00;101683.84;7383454;19;20522;-44
2023/06/07 04:09:33;;;;;;;26.70;11.70;;;;;;;9.86;100.00;101670.19;7405248;19;20401;-44
2023/06/07 04:12:06;;;;;;;36.87;14.00;;;;;;;9.65;100.00;101674.94;7384251;19;20417;-43
2023/06/07 04:14:35;;;;;;;20.40;7.67;;;;;;;9.49;100.00;101669.69;7404681;19;20392;-44
2023/06/07 04:17:05;;;;;;;26.37;7.93;;;;;;;9.29;100.00;101671.94;7380083;19;20427;-43
2023/06/07 04:19:35;;;;;;;23.07;7.77;;;;;;;9.42;100.00;101673.56;7404269;19;20469;-44
2023/06/07 04:22:13;;;;;;;17.93;7.93;;;;;;;9.73;100.00;101667.69;7382395;19;20422;-44
2023/06/07 04:24:43;;;;;;;18.27;7.90;;;;;;;9.64;100.00;101667.16;7404350;19;20412;-43
2023/06/07 04:27:17;;;;;;;16.37;6.70;;;;;;;9.49;100.00;101669.69;7379042;19;20427;-44
2023/06/07 04:29:53;;;;;;;12.87;6.67;;;;;;;9.48;100.00;101668.78;7409144;19;20413;-44
2023/06/07 04:32:25;;;;;;;18.97;6.77;;;;;;;9.40;100.00;101665.78;7381507;19;20421;-44
2023/06/07 04:34:56;;;;;;;14.43;6.70;;;;;;;9.30;100.00;101674.63;7404229;19;20387;-43
2023/06/07 04:37:26;;;;;;;13.87;7.23;;;;;;;9.31;100.00;101667.75;7378724;19;20466;-44
2023/06/07 04:39:55;;;;;;;21.10;8.40;;;;;;;9.37;100.00;101668.13;7406059;19;20428;-44
2023/06/07 04:42:28;;;;;;;16.50;7.10;;;;;;;9.32;100.00;101664.38;7379837;19;20439;-43
2023/06/07 04:45:00;;;;;;;17.23;6.73;;;;;;;9.40;100.00;101670.03;7404196;19;20385;-44
2023/06/07 04:47:29;;;;;;;16.30;7.33;;;;;;;9.24;100.00;101669.09;7380453;19;20442;-43
2023/06/07 04:50:00;;;;;;;15.90;6.80;;;;;;;9.48;100.00;101661.06;7404962;19;20795;-44
2023/06/07 04:52:31;;;;;;;15.27;6.33;;;;;;;9.75;100.00;101663.53;7380027;19;20410;-44
2023/06/07 04:55:01;;;;;;;12.90;6.50;;;;;;;9.55;100.00;101665.78;7404209;19;20396;-44
2023/06/07 04:57:33;;;;;;;10.83;5.73;;;;;;;9.92;100.00;101651.66;7377543;19;20451;-43
2023/06/07 05:00:06;;;;;;;12.70;6.27;;;;;;;10.07;100.00;101651.66;7403688;19;20416;-44
2023/06/07 05:02:41;;;;;;;11.90;5.57;;;;;;;9.70;100.00;101654.63;7381868;19;20787;-44
2023/06/07 05:05:13;;;;;;;13.20;5.10;;;;;;;9.55;100.00;101665.78;7405519;19;21147;-44
2023/06/07 05:07:44;;;;;;;11.00;5.60;;;;;;;9.41;100.00;101667.53;7377711;19;20484;-42
2023/06/07 05:10:14;;;;;;;29.90;15.07;;;;;;;9.43;100.00;101675.34;7403569;19;20412;-44
2023/06/07 05:12:46;;;;;;;16.47;9.60;;;;;;;9.66;100.00;101668.13;7379478;19;20429;-47
2023/06/07 05:15:16;;;;;;;29.03;16.47;;;;;;;10.48;100.00;101662.59;7404544;19;20416;-44
2023/06/07 05:17:46;;;;;;;56.67;31.87;;;;;;;11.00;100.00;101655.06;7377619;19;20415;-44
2023/06/07 05:20:16;;;;;;;31.07;17.77;;;;;;;10.64;100.00;101663.44;7404769;19;20394;-44
2023/06/07 05:22:46;;;;;;;24.37;13.67;;;;;;;10.96;100.00;101666.06;7379067;19;20437;-44
2023/06/07 05:25:16;;;;;;;24.17;13.83;;;;;;;11.23;100.00;101668.34;7403938;19;20445;-44
2023/06/07 05:27:49;;;;;;;16.73;9.10;;;;;;;10.79;100.00;101691.81;7377233;19;20479;-43
2023/06/07 05:30:39;;;;;;;13.60;6.10;;;;;;;10.11;100.00;101700.00;7403049;19;20756;-44
2023/06/07 05:33:09;;;;;;;10.87;6.20;;;;;;;9.73;100.00;101704.69;7378175;19;20433;-44
2023/06/07 05:35:38;;;;;;;11.93;6.63;;;;;;;9.77;100.00;101703.16;7401709;19;20391;-44
2023/06/07 05:38:08;;;;;;;11.23;5.70;;;;;;;9.85;100.00;101707.09;7378010;19;20449;-44
2023/06/07 05:40:38;;;;;;;14.07;6.70;;;;;;;9.83;100.00;101700.06;7404715;19;20513;-43
2023/06/07 05:43:10;;;;;;;10.13;5.60;;;;;;;9.64;100.00;101705.81;7378256;19;20433;-43
2023/06/07 05:45:40;;;;;;;20.47;8.90;;;;;;;10.25;100.00;101697.34;7403615;19;20399;-43
2023/06/07 05:48:09;;;;;;;13.13;6.83;;;;;;;10.17;100.00;101693.44;7376642;19;20438;-43
2023/06/07 05:50:39;;;;;;;19.80;10.20;;;;;;;10.15;100.00;101700.19;7401752;19;21080;-44
2023/06/07 05:53:09;;;;;;;8.97;6.13;;;;;;;9.84;100.00;101710.47;7378957;19;20447;-44
2023/06/07 05:55:39;;;;;;;11.70;6.70;;;;;;;9.91;100.00;101705.69;7408071;19;20407;-44
2023/06/07 05:58:12;;;;;;;13.50;7.40;;;;;;;9.92;100.00;101703.19;7382181;19;20433;-44
2023/06/07 06:00:44;;;;;;;12.40;5.77;;;;;;;10.00;100.00;101712.28;7407040;19;20404;-44
2023/06/07 06:03:16;;;;;;;13.53;6.97;;;;;;;9.79;100.00;101714.44;7385093;19;20413;-42
2023/06/07 06:05:46;;;;;;;12.50;6.60;;;;;;;10.04;100.00;101713.34;7412605;19;20957;-44
2023/06/07 06:08:16;;;;;;;18.30;6.30;;;;;;;9.98;100.00;101713.88;7379046;19;20519;-43
2023/06/07 06:10:47;;;;;;;9.93;6.10;;;;;;;10.29;100.00;101713.91;7412737;19;20453;-44
2023/06/07 06:13:19;;;;;;;76.83;31.07;;;;;;;10.50;100.00;101711.69;7387685;19;20445;-44
2023/06/07 06:15:49;;;;;;;15.47;8.60;;;;;;;10.18;100.00;101726.16;7412795;19;20424;-43
2023/06/07 06:18:18;;;;;;;16.93;7.50;;;;;;;10.07;100.00;101734.16;7384614;19;20500;-44
2023/06/07 06:20:48;;;;;;;11.87;6.77;;;;;;;10.21;100.00;101737.53;7414249;19;20653;-43
2023/06/07 06:23:17;;;;;;;10.20;6.40;;;;;;;10.35;100.00;101745.19;7387569;19;21391;-44
2023/06/07 06:25:47;;;;;;;9.10;6.10;;;;;;;10.27;100.00;101753.38;7412043;19;20402;-44
2023/06/07 06:28:21;;;;;;;10.80;6.27;;;;;;;10.32;100.00;101761.41;7385551;19;20470;-44
2023/06/07 06:30:50;;;;;;;15.23;7.67;;;;;;;10.22;100.00;101764.22;7412168;19;20411;-43
2023/06/07 06:33:20;;;;;;;9.60;6.13;;;;;;;10.36;100.00;101776.25;7387431;19;20422;-43
2023/06/07 06:35:49;;;;;;;12.23;7.23;;;;;;;10.32;100.00;101776.88;7411902;19;20476;-43
2023/06/07 06:38:19;;;;;;;15.40;7.37;;;;;;;10.48;100.00;101782.97;7384381;19;20456;-44
2023/06/07 06:40:49;;;;;;;15.10;7.23;;;;;;;10.70;100.00;101791.94;7413040;19;20413;-42
2023/06/07 06:43:21;;;;;;;15.40;8.33;;;;;;;10.57;100.00;101804.16;7388387;19;20456;-42
2023/06/07 06:45:51;;;;;;;20.23;9.93;;;;;;;10.36;100.00;101814.94;7411759;19;20414;-44
2023/06/07 06:48:20;;;;;;;14.53;7.40;;;;;;;10.32;100.00;101819.84;7383722;19;20460;-44
2023/06/07 06:50:50;;;;;;;9.97;6.20;;;;;;;10.74;100.00;101807.72;7409245;19;20985;-44
2023/06/07 06:53:19;;;;;;;13.00;7.00;;;;;;;10.80;100.00;101823.56;7384953;19;20456;-43
2023/06/07 06:55:52;;;;;;;19.50;9.50;;;;;;;10.81;100.00;101827.00;7408875;19;20413;-44
2023/06/07 06:58:24;;;;;;;22.73;9.87;;;;;;;10.92;100.00;101843.16;7382757;19;20456;-44
2023/06/07 07:00:53;;;;;;;15.10;6.93;;;;;;;10.86;100.00;101848.84;7410144;19;20415;-44
2023/06/07 07:03:23;;;;;;;55.20;22.70;;;;;;;11.08;100.00;101857.84;7384856;19;20459;-44
2023/06/07 07:05:53;;;;;;;21.27;9.30;;;;;;;11.14;100.00;101860.78;7407937;19;20429;-43
2023/06/07 07:08:22;;;;;;;14.30;6.50;;;;;;;11.53;100.00;101874.97;7382354;19;20468;-44
2023/06/07 07:10:52;;;;;;;31.23;14.30;;;;;;;11.30;100.00;101888.38;7410981;19;20435;-44
2023/06/07 07:13:24;;;;;;;23.90;10.20;;;;;;;11.28;100.00;101894.25;7385099;19;20482;-44
2023/06/07 07:15:54;;;;;;;25.37;11.70;;;;;;;11.08;100.00;101894.88;7409322;19;20411;-44
2023/06/07 07:18:23;;;;;;;14.87;7.57;;;;;;;11.19;100.00;101894.59;7382646;19;20453;-44
2023/06/07 07:20:53;;;;;;;17.03;6.13;;;;;;;11.41;100.00;101896.72;7412010;19;20428;-43
2023/06/07 07:23:22;;;;;;;14.67;6.77;;;;;;;11.57;100.00;101894.97;7383567;19;20534;-44
2023/06/07 07:25:52;;;;;;;11.20;6.57;;;;;;;11.71;100.00;101894.06;7410457;19;20410;-44
2023/06/07 07:28:24;;;;;;;31.83;13.67;;;;;;;11.85;100.00;101893.94;7384075;19;20540;-42
2023/06/07 07:30:54;;;;;;;23.67;13.10;;;;;;;12.17;100.00;101892.22;7412190;19;20414;-43
2023/06/07 07:33:24;;;;;;;26.03;13.10;;;;;;;12.74;100.00;101898.56;7387662;19;20543;-43
2023/06/07 07:35:53;;;;;;;20.60;10.93;;;;;;;12.45;100.00;101893.66;7412562;19;20484;-43
2023/06/07 07:38:23;;;;;;;25.40;13.93;;;;;;;12.53;100.00;101894.97;7383496;19;20460;-44
2023/06/07 07:40:52;;;;;;;23.30;13.57;;;;;;;12.76;100.00;101897.84;7410407;19;20926;-44
2023/06/07 07:43:25;;;;;;;21.50;9.57;;;;;;;12.87;100.00;101908.75;7387580;19;20465;-44
2023/06/07 07:45:54;;;;;;;18.00;9.30;;;;;;;12.89;100.00;101924.38;7411529;19;20428;-44
2023/06/07 07:48:24;;;;;;;19.50;6.90;;;;;;;12.56;100.00;101933.06;7386522;19;20461;-44
2023/06/07 07:50:53;;;;;;;16.33;7.00;;;;;;;12.76;100.00;101941.88;7412062;19;20770;-43
2023/06/07 07:53:23;;;;;;;15.30;5.73;;;;;;;13.02;100.00;101955.25;7386935;19;20453;-44
2023/06/07 07:55:53;;;;;;;16.23;7.00;;;;;;;13.10;100.00;101956.56;7411839;19;20421;-43
2023/06/07 07:58:25;;;;;;;28.93;11.13;;;;;;;13.28;100.00;101968.63;7385580;19;21086;-43
2023/06/07 08:00:55;;;;;;;35.43;16.63;;;;;;;13.28;100.00;101986.78;7412500;19;20409;-43
2023/06/07 08:03:24;;;;;;;22.40;9.40;;;;;;;13.33;100.00;101993.09;7387753;19;20418;-44
2023/06/07 08:05:54;;;;;;;16.00;7.23;;;;;;;13.52;100.00;102004.41;7412458;19;20406;-44
2023/06/07 08:08:24;;;;;;;16.43;6.73;;;;;;;13.46;100.00;102020.56;7382243;19;20473;-43
2023/06/07 08:10:54;;;;;;;17.77;8.03;;;;;;;13.70;100.00;102034.66;7410448;19;20451;-44
2023/06/07 08:13:26;;;;;;;28.40;12.20;;;;;;;13.88;100.00;102048.53;7384825;19;20470;-44
2023/06/07 08:15:55;;;;;;;13.37;5.87;;;;;;;13.77;100.00;102073.03;7409197;19;20731;-44
2023/06/07 08:18:25;;;;;;;14.80;5.50;;;;;;;13.90;100.00;102080.63;7381170;19;20447;-44
2023/06/07 08:20:55;;;;;;;13.00;5.83;;;;;;;14.15;100.00;102089.59;7409842;19;20466;-43
2023/06/07 08:23:24;;;;;;;14.03;5.10;;;;;;;14.22;100.00;102108.06;7384397;19;20976;-44
2023/06/07 08:25:54;;;;;;;77.40;44.00;;;;;;;14.67;100.00;102095.47;7409413;19;20995;-44
2023/06/07 08:28:26;;;;;;;20.93;9.20;;;;;;;14.87;100.00;102105.91;7381471;19;20980;-43
2023/06/07 08:30:56;;;;;;;24.83;8.87;;;;;;;15.08;100.00;102099.94;7406732;19;20416;-43
2023/06/07 08:33:25;;;;;;;14.80;5.80;;;;;;;14.90;100.00;102106.06;7384022;19;20450;-44
2023/06/07 08:35:55;;;;;;;40.67;20.37;;;;;;;15.08;100.00;102099.94;7409882;19;20755;-44
2023/06/07 08:38:25;;;;;;;18.70;6.33;;;;;;;15.29;100.00;102099.09;7378176;19;20452;-43
2023/06/07 08:40:56;;;;;;;16.63;8.23;;;;;;;15.39;100.00;102099.53;7404232;19;20427;-44
2023/06/07 08:43:28;;;;;;;17.63;5.90;;;;;;;15.32;100.00;102091.41;7379958;19;20504;-44
2023/06/07 08:45:58;;;;;;;16.40;5.00;;;;;;;15.54;100.00;102085.44;7406222;19;20440;-44
2023/06/07 08:48:28;;;;;;;11.83;4.73;;;;;;;15.87;100.00;102094.56;7377984;19;20448;-42
2023/06/07 08:50:58;;;;;;;15.17;5.40;;;;;;;15.77;100.00;102086.41;7405730;19;20404;-44
2023/06/07 08:53:30;;;;;;;24.13;12.70;;;;;;;15.90;100.00;102095.59;7382936;19;20439;-44
2023/06/07 08:56:00;;;;;;;26.60;12.03;;;;;;;16.00;100.00;102091.66;7407121;19;20409;-44
2023/06/07 08:58:32;;;;;;;17.87;8.37;;;;;;;15.93;100.00;102068.84;7379720;19;20452;-44
2023/06/07 09:01:02;;;;;;;17.63;7.33;;;;;;;16.05;100.00;102060.66;7407376;19;20420;-44
2023/06/07 09:03:31;;;;;;;18.10;6.40;;;;;;;16.38;100.00;102049.78;7382438;19;20456;-44
2023/06/07 09:06:01;;;;;;;12.10;5.20;;;;;;;16.47;100.00;102033.59;7406431;19;20804;-43
2023/06/07 09:08:31;;;;;;;12.37;4.40;;;;;;;16.44;100.00;102007.44;7378248;19;21003;-43
2023/06/07 09:11:01;;;;;;;13.63;4.60;;;;;;;16.74;100.00;102018.13;7406747;19;20402;-44
2023/06/07 09:13:33;;;;;;;13.03;5.20;;;;;;;17.03;100.00;102020.00;7378346;19;20422;-44
2023/06/07 09:16:04;;;;;;;14.57;6.90;;;;;;;17.34;100.00;102013.22;7403548;19;20946;-44
2023/06/07 09:18:44;;;;;;;25.40;9.43;;;;;;;17.27;100.00;101962.59;7369992;19;20441;-41
2023/06/07 09:21:21;;;;;;;20.87;6.80;;;;;;;17.42;100.00;101956.09;7396646;19;20411;-43
2023/06/07 09:23:51;;;;;;;10.93;4.87;;;;;;;17.40;100.00;101916.91;7375148;19;20433;-43
2023/06/07 09:26:24;;;;;;;12.27;6.27;;;;;;;17.75;100.00;101910.16;7401173;19;20753;-42
2023/06/07 09:28:56;;;;;;;20.53;8.40;;;;;;;17.64;100.00;101904.63;7368882;19;20479;-44
2023/06/07 09:31:32;;;;;;;15.60;5.00;;;;;;;17.76;100.00;101912.81;7395329;19;20398;-42
2023/06/07 09:34:21;;;;;;;16.73;6.93;;;;;;;17.65;100.00;101873.31;7373793;19;20411;-44
2023/06/07 09:36:51;;;;;;;17.10;5.43;;;;;;;17.88;100.00;101891.41;7370686;19;20384;-43
2023/06/07 09:39:23;;;;;;;11.80;4.77;;;;;;;17.93;100.00;101878.47;7400035;19;20404;-44
2023/06/07 09:41:54;;;;;;;13.93;6.07;;;;;;;18.17;100.00;101873.13;7377062;19;20407;-44
2023/06/07 09:44:28;;;;;;;18.47;9.90;;;;;;;18.46;100.00;101841.66;7399665;19;20440;-44
2023/06/07 09:46:58;;;;;;;18.80;5.30;;;;;;;18.52;100.00;101812.22;7375032;19;20743;-43
2023/06/07 09:49:34;;;;;;;15.13;4.67;;;;;;;18.68;100.00;101816.09;7401015;19;20430;-44
2023/06/07 09:52:06;;;;;;;15.27;6.90;;;;;;;18.68;100.00;101796.91;7375237;19;20603;-44
2023/06/07 09:54:39;;;;;;;14.73;6.70;;;;;;;18.81;100.00;101787.66;7401081;19;20954;-44
2023/06/07 09:57:11;;;;;;;19.33;5.10;;;;;;;18.92;100.00;101777.44;7377233;19;20539;-43
2023/06/07 09:59:58;;;;;;;13.23;5.53;;;;;;;19.00;100.00;101753.25;7402291;19;20424;-44
2023/06/07 10:02:29;;;;;;;14.27;5.73;;;;;;;19.06;100.00;101735.97;7376673;19;20427;-43
2023/06/07 10:05:00;;;;;;;16.10;8.20;;;;;;;19.14;100.00;101716.09;7399869;19;21023;-44
2023/06/07 10:07:33;;;;;;;17.63;9.73;;;;;;;19.28;100.00;101712.00;7374433;19;20451;-44
2023/06/07 10:10:03;;;;;;;15.13;8.07;;;;;;;19.40;100.00;101679.09;7401613;19;20443;-44
2023/06/07 10:12:38;;;;;;;21.37;9.40;;;;;;;19.50;100.00;101677.56;7374354;19;20436;-44
2023/06/07 10:15:13;;;;;;;13.87;6.67;;;;;;;19.68;100.00;101677.00;7403039;19;20814;-44
2023/06/07 10:17:48;;;;;;;13.47;8.30;;;;;;;19.73;100.00;101636.09;7374842;19;20462;-44
2023/06/07 10:20:24;;;;;;;17.87;7.90;;;;;;;19.73;100.00;101625.63;7402026;19;20958;-43
2023/06/07 10:22:58;;;;;;;15.97;6.53;;;;;;;19.78;100.00;101610.00;7378108;19;20447;-44
2023/06/07 10:25:32;;;;;;;17.53;6.43;;;;;;;19.91;100.00;101603.25;7404057;19;20419;-44
2023/06/07 10:28:15;;;;;;;18.37;8.30;;;;;;;20.33;100.00;101591.69;7377119;19;20482;-43
2023/06/07 10:30:54;;;;;;;12.13;6.90;;;;;;;20.58;100.00;101575.41;7405008;19;20431;-43
2023/06/07 10:33:26;;;;;;;12.90;6.30;;;;;;;20.54;100.00;101563.13;7376657;19;20453;-44
2023/06/07 10:35:56;;;;;;;13.77;4.93;;;;;;;20.76;100.00;101559.03;7398618;19;20404;-43
2023/06/07 10:38:26;;;;;;;16.13;5.13;;;;;;;20.17;100.00;101548.69;7375010;19;20455;-43
2023/06/07 10:40:55;;;;;;;12.33;5.23;;;;;;;20.53;100.00;101546.53;7406048;19;20410;-43
2023/06/07 10:43:28;;;;;;;13.93;4.97;;;;;;;20.75;100.00;101544.16;7387021;19;20431;-43
2023/06/07 10:46:25;;;;;;;12.90;5.50;;;;;;;20.93;100.00;101535.69;7411594;19;20420;-43
2023/06/07 10:48:56;;;;;;;14.13;4.73;;;;;;;21.04;100.00;101544.53;7383600;19;20822;-43
2023/06/07 10:51:58;;;;;;;13.90;4.93;;;;;;;20.83;100.00;101539.91;7410527;19;20407;-43
2023/06/07 10:54:32;;;;;;;14.80;5.00;;;;;;;20.88;100.00;101540.84;7390298;19;20474;-42
2023/06/07 10:57:03;;;;;;;16.90;4.93;;;;;;;21.01;100.00;101546.25;7383710;19;20571;-43
2023/06/07 10:59:32;;;;;;;15.07;5.50;;;;;;;21.15;100.00;101547.28;7408130;19;20396;-42
2023/06/07 11:02:24;;;;;;;9.47;3.77;;;;;;;21.15;100.00;101555.16;7385160;19;20946;-42
2023/06/07 11:05:03;;;;;;;8.90;3.77;;;;;;;21.41;100.00;101559.78;7409820;19;20486;-43
2023/06/07 11:07:37;;;;;;;8.60;3.43;;;;;;;21.31;100.00;101574.56;7382229;19;20998;-43
2023/06/07 11:10:34;;;;;;;9.13;4.47;;;;;;;21.37;100.00;101568.47;7412547;19;20781;-42
2023/06/07 11:13:04;;;;;;;7.60;3.93;;;;;;;21.31;100.00;101566.69;7382928;19;20423;-43
2023/06/07 11:15:35;;;;;;;9.23;3.83;;;;;;;21.37;100.00;101563.22;7412861;19;20416;-43
2023/06/07 11:18:10;;;;;;;9.80;4.30;;;;;;;21.64;100.00;101571.34;7382997;19;20451;-43
2023/06/07 11:20:54;;;;;;;10.50;4.30;;;;;;;21.92;100.00;101572.47;7408580;19;20782;-42
2023/06/07 11:23:25;;;;;;;20.93;4.30;;;;;;;21.87;100.00;101576.81;7383251;19;20422;-43
2023/06/07 11:26:00;;;;;;;10.40;3.87;;;;;;;21.62;100.00;101581.81;7409882;19;20440;-43
2023/06/07 11:28:31;;;;;;;9.60;3.80;;;;;;;21.62;100.00;101581.81;7382864;19;20476;-43
2023/06/07 11:31:03;;;;;;;10.47;4.43;;;;;;;21.37;100.00;101584.22;7411693;19;20396;-43